Latest Weather Observations for Swan Island

IDT60801

Issued at 10:21 pm EDT Thursday 17 January 2019 (issued every 10 minutes, with the page automatically refreshed every 10 minutes)

About weather observations | Map of weather stations | Latest weather observations for TAS | Other Formats
Station Details ID: 092123 Name: SWAN ISLAND Lat: -40.73 Lon: 148.12 Height: 15.0 m
Data from the previous 72 hours. | See also: Recent months at Swan Island
Date/Time
EDT
Temp
°C
App
Temp
°C
Dew
Point
°C
Rel
Hum
%
Delta-T
°C
Wind Press
QNH
hPa
Press
MSL
hPa
Rain since
9am
mm
Dir  Spd
km/h
Gust
km/h
Spd
kts
Gust
kts
17/10:00pm 19.8 19.8 18.1 90 1.1 W 15 19 8 10 1007.5 1007.5 0.2
17/09:30pm 19.7 20.4 17.1 85 1.6 W 9 13 5 7 1007.2 1007.2 0.2
17/09:00pm 20.0 20.7 17.0 83 1.8 WNW 9 11 5 6 1007.4 1007.4 0.2
17/08:30pm 20.3 21.3 16.9 81 2.1 WNW 7 9 4 5 1007.4 1007.4 0.2
17/08:00pm 21.2 21.7 17.4 79 2.3 NW 11 13 6 7 1007.4 1007.4 0.2
17/07:30pm 20.9 22.3 17.9 83 1.9 N 7 9 4 5 1006.8 1006.8 0.2
17/07:00pm 20.9 22.3 17.7 82 2.0 NE 7 9 4 5 1007.0 1007.0 0.2
17/06:30pm 21.7 22.3 17.7 78 2.5 NNE 11 13 6 7 1007.1 1007.1 0.2
17/06:00pm 21.3 22.2 18.5 84 1.8 NE 11 13 6 7 1006.9 1006.9 0.2
17/05:30pm 21.3 22.2 18.3 83 1.9 E 11 13 6 7 1007.0 1007.0 0.2
17/05:00pm 22.3 22.9 17.7 75 2.9 NE 11 15 6 8 1007.2 1007.2 0.2
17/04:30pm 23.0 22.2 17.2 70 3.6 NE 17 20 9 11 1007.3 1007.3 0.2
17/04:00pm 23.3 22.1 17.1 68 3.8 NNE 19 24 10 13 1007.3 1007.3 0.2
17/03:30pm 22.6 20.7 16.6 69 3.7 NE 22 30 12 16 1007.6 1007.6 0.2
17/03:00pm 23.0 20.7 17.7 72 3.3 NE 26 32 14 17 1007.6 1007.6 0.2
17/02:30pm 23.1 21.8 18.2 74 3.1 NE 22 32 12 17 1007.9 1007.9 0.2
17/02:00pm 22.4 21.3 19.4 83 1.9 NE 24 30 13 16 1007.8 1007.8 0.2
17/01:30pm 21.9 19.8 18.9 83 1.9 NE 28 33 15 18 1007.7 1007.7 0.2
17/01:00pm 21.4 20.1 19.0 86 1.5 NE 24 30 13 16 1008.1 1008.1 0.0
17/12:30pm 22.1 21.4 19.5 85 1.7 NE 22 26 12 14 1008.3 1008.3 0.0
17/12:00pm 20.5 20.2 19.2 92 0.8 NE 19 24 10 13 1008.8 1008.8 0.0
17/11:30am 20.4 19.8 18.9 91 0.9 NE 20 26 11 14 1008.7 1008.7 0.0
17/11:00am 19.6 18.9 18.3 92 0.8 NE 19 24 10 13 1009.1 1009.1 0.0
17/10:30am 19.2 18.8 17.2 88 1.2 NE 15 20 8 11 1008.8 1008.8 0.0
17/10:00am 18.8 17.6 16.2 85 1.6 SE 17 22 9 12 1008.6 1008.6 0.0
17/09:30am 18.6 17.4 17.4 93 0.7 E 20 24 11 13 1009.3 1009.3 0.0
17/09:00am 19.6 20.0 16.3 81 2.0 SSE 9 15 5 8 1009.9 1009.9 0.0
17/08:30am 19.0 20.1 17.0 88 1.2 WSW 7 9 4 5 1009.6 1009.6 0.0
17/08:00am 18.6 20.2 17.8 95 0.5 NNW 6 6 3 3 1010.2 1010.2 0.0
17/07:30am 18.4 19.7 17.6 95 0.5 N 7 11 4 6 1009.6 1009.6 0.0
17/07:00am 18.3 19.7 17.3 94 0.6 NW 6 13 3 7 1008.2 1008.2 0.0
17/06:30am 18.1 19.4 17.0 93 0.7 WSW 6 9 3 5 1009.4 1009.4 0.0
17/06:00am 18.1 19.4 17.0 93 0.7 W 6 9 3 5 1009.7 1009.7 0.0
17/05:30am 17.9 18.5 16.9 94 0.6 SW 9 13 5 7 1008.9 1008.9 0.0
17/05:00am 17.9 18.6 17.1 95 0.5 SW 9 11 5 6 1008.2 1008.2 0.0
17/04:30am 17.8 18.9 17.0 95 0.5 SW 7 11 4 6 1008.6 1008.6 0.0
17/04:00am 17.7 18.8 16.6 93 0.7 SW 6 9 3 5 1008.4 1008.4 0.0
17/03:30am 17.9 19.1 16.8 93 0.7 WSW 6 9 3 5 1009.1 1009.1 0.0
17/03:00am 18.2 19.2 16.9 92 0.8 W 7 11 4 6 1009.7 1009.7 0.0
17/02:30am 18.9 20.3 17.4 91 0.9 W 6 7 3 4 1010.0 1010.0 0.0
17/02:00am 18.7 19.5 17.4 92 0.8 WSW 9 11 5 6 1010.7 1010.7 0.0
17/01:30am 18.5 18.9 17.2 92 0.8 WSW 11 19 6 10 1011.1 1011.0 0.0
17/01:00am 18.8 18.1 17.3 91 0.9 W 17 24 9 13 1011.5 1011.4 0.0
17/12:30am 18.9 17.4 17.7 93 0.7 N 22 32 12 17 1011.1 1011.0 0.0
17/12:00am 18.7 18.8 17.4 92 0.8 NNE 13 17 7 9 1010.7 1010.7 0.0
 
Date/Time
EDT
Temp
°C
App
Temp
°C
Dew
Point
°C
Rel
Hum
%
Delta-T
°C
Wind Press
QNH
hPa
Press
MSL
hPa
Rain since
9am
mm
Dir  Spd
km/h
Gust
km/h
Spd
kts
Gust
kts
16/11:30pm 18.8 17.8 17.6 93 0.7 NNE 19 24 10 13 1011.1 1011.0 0.0
16/11:00pm 18.8 17.6 17.5 92 0.8 ENE 20 24 11 13 1010.7 1010.7 0.0
16/10:30pm 19.0 18.3 17.3 90 1.0 NE 17 22 9 12 1011.0 1010.9 0.0
16/10:00pm 19.0 17.0 17.3 90 1.0 NNE 24 33 13 18 1011.2 1011.1 0.0
16/09:30pm 18.9 17.6 17.2 90 1.0 NNE 20 26 11 14 1012.7 1012.6 0.0
16/09:00pm 18.5 17.1 17.0 91 0.9 NE 20 24 11 13 1012.4 1012.3 0.0
16/08:30pm 18.5 18.3 16.7 89 1.1 ENE 13 17 7 9 1012.6 1012.5 0.0
16/08:00pm 18.6 19.1 16.6 88 1.2 ENE 9 15 5 8 1013.0 1012.9 0.0
16/07:30pm 18.6 17.3 16.8 89 1.1 ENE 19 24 10 13 1011.6 1011.5 0.0
16/07:00pm 18.8 17.4 16.6 87 1.3 E 19 22 10 12 1011.0 1010.9 0.0
16/06:30pm 18.8 17.4 16.6 87 1.3 E 19 24 10 13 1011.5 1011.4 0.0
16/06:00pm 19.1 17.5 16.1 83 1.8 E 19 20 10 11 1011.9 1011.8 0.0
16/05:30pm 20.2 18.7 16.4 79 2.3 E 19 22 10 12 1011.6 1011.5 0.0
16/05:00pm 20.6 20.4 16.8 79 2.3 E 13 19 7 10 1011.9 1011.8 0.0
16/04:30pm 21.2 20.3 16.8 76 2.7 E 17 19 9 10 1011.8 1011.7 0.0
16/04:00pm 21.3 20.4 16.9 76 2.7 E 17 20 9 11 1011.8 1011.7 0.0
16/03:30pm 22.2 20.8 17.1 73 3.1 E 20 24 11 13 1011.5 1011.4 0.0
16/03:00pm 22.4 21.6 17.1 72 3.3 E 17 22 9 12 1011.6 1011.5 0.0
16/02:30pm 22.3 21.5 17.2 73 3.1 E 17 20 9 11 1011.4 1011.3 0.0
16/02:00pm 23.2 22.3 17.7 71 3.4 E 19 20 10 11 1011.2 1011.1 0.0
16/01:30pm 22.1 21.3 17.2 74 3.0 E 17 20 9 11 1011.3 1011.2 0.0
16/01:00pm 22.9 21.9 17.6 72 3.3 E 19 20 10 11 1011.2 1011.1 0.0
16/12:30pm 22.2 21.5 17.3 74 3.0 E 17 19 9 10 1011.4 1011.3 0.0
16/12:00pm 23.1 23.1 18.0 73 3.2 E 15 19 8 10 1011.2 1011.1 0.0
16/11:30am 22.6 21.9 17.3 72 3.3 E 17 20 9 11 1011.0 1010.9 0.0
16/11:00am 22.6 21.9 17.3 72 3.3 ESE 17 20 9 11 1010.6 1010.6 0.0
16/10:30am 22.0 21.5 17.8 77 2.6 E 17 20 9 11 1010.5 1010.5 0.0
16/10:00am 21.4 20.7 18.2 82 2.0 ESE 19 20 10 11 1010.4 1010.4 0.0
16/09:30am 20.1 19.5 17.5 85 1.6 ESE 17 22 9 12 1010.2 1010.2 0.0
16/09:00am 20.5 20.0 17.7 84 1.7 ESE 17 20 9 11 1010.5 1010.5 -
16/08:30am 19.6 19.9 17.0 85 1.6 ESE 11 13 6 7 1010.1 1010.1 -
16/08:00am 19.0 19.2 16.8 87 1.3 SE 11 15 6 8 1009.8 1009.8 -
16/07:30am 18.2 19.1 16.7 91 0.9 SSE 7 11 4 6 1009.3 1009.3 -
16/07:00am 18.1 19.6 17.5 96 0.4 SSE 6 9 3 5 1008.8 1008.8 -
16/06:30am 16.7 17.6 16.2 97 0.3 SW 6 6 3 3 1008.5 1008.5 -
16/06:00am 17.0 18.8 16.5 97 0.3 SW 2 4 1 2 1008.3 1008.3 -
16/05:30am 17.3 18.6 17.0 98 0.2 SSW 6 7 3 4 1008.4 1008.4 -
16/05:00am 17.3 18.0 17.1 99 0.1 WSW 9 13 5 7 1008.1 1008.1 -
16/04:30am 17.6 17.4 17.6 100 0.0 W 15 20 8 11 1007.8 1007.8 -
16/04:00am 17.7 17.9 17.7 100 0.0 W 13 22 7 12 1007.7 1007.7 -
16/03:30am 17.6 16.4 17.4 99 0.1 W 20 26 11 14 1007.4 1007.4 -
16/03:00am 17.7 16.7 17.5 99 0.1 W 19 24 10 13 1007.7 1007.7 0.0
16/02:30am 17.5 15.9 17.5 100 0.0 W 22 32 12 17 1007.5 1007.5 -
16/02:00am 17.5 15.5 17.5 100 0.0 WNW 24 33 13 18 1007.6 1007.6 -
16/01:30am 17.5 14.4 17.5 100 0.0 W 30 39 16 21 1007.9 1007.9 -
16/01:00am 17.4 14.6 17.4 100 0.0 WNW 28 37 15 20 1008.0 1008.0 -
16/12:30am 17.4 13.9 17.4 100 0.0 WNW 32 41 17 22 1007.8 1007.8 -
16/12:00am 17.6 15.3 17.6 100 0.0 WNW 26 32 14 17 1007.5 1007.5 -
 
Date/Time
EDT
Temp
°C
App
Temp
°C
Dew
Point
°C
Rel
Hum
%
Delta-T
°C
Wind Press
QNH
hPa
Press
MSL
hPa
Rain since
9am
mm
Dir  Spd
km/h
Gust
km/h
Spd
kts
Gust
kts
15/11:30pm 17.8 16.7 17.8 100 0.0 WNW 20 32 11 17 1007.6 1007.6 -
15/11:00pm 17.8 17.7 17.8 100 0.0 WNW 15 20 8 11 1006.5 1006.5 -
15/10:30pm 17.9 16.5 17.9 100 0.0 WNW 22 32 12 17 1007.6 1007.6 -
15/10:00pm 18.0 17.2 18.0 100 0.0 WNW 19 26 10 14 1007.6 1007.6 -
15/09:30pm 18.0 17.1 17.8 99 0.1 WNW 19 22 10 12 1007.3 1007.3 -
15/09:00pm 18.5 18.9 18.2 98 0.2 W 13 19 7 10 1007.8 1007.8 -
15/08:30pm 19.3 19.5 18.6 96 0.4 W 15 19 8 10 1007.3 1007.3 -
15/08:00pm 20.2 19.8 19.0 93 0.8 W 19 24 10 13 1007.3 1007.3 -
15/07:30pm 20.9 21.0 19.2 90 1.1 W 17 26 9 14 1007.1 1007.1 -
15/07:00pm 21.6 22.2 19.5 88 1.3 W 15 20 8 11 1007.5 1007.5 0.0
15/06:30pm 21.7 22.5 19.1 85 1.6 W 13 17 7 9 1007.4 1007.4 0.0
15/06:00pm 23.2 25.5 19.8 81 2.2 W 7 13 4 7 1007.7 1007.7 0.0
15/05:30pm 22.0 24.3 19.5 86 1.6 NE 6 11 3 6 1007.7 1007.7 0.0
15/05:00pm 22.5 24.4 19.7 84 1.8 NE 9 15 5 8 1007.3 1007.3 0.0
15/04:30pm 22.6 24.9 19.8 84 1.8 NE 7 11 4 6 1007.6 1007.6 0.0
15/04:00pm 22.4 24.9 19.9 86 1.6 NE 6 9 3 5 1008.0 1008.0 0.0
15/03:30pm 22.3 24.6 19.8 86 1.6 NNE 7 11 4 6 1008.0 1008.0 0.0
15/03:00pm 24.0 26.2 20.3 80 2.4 NNE 9 15 5 8 1008.1 1008.1 0.0
15/02:30pm 24.0 24.9 20.1 79 2.5 NE 15 17 8 9 1008.2 1008.2 0.0
15/02:00pm 22.6 24.3 19.4 82 2.0 ENE 9 11 5 6 1008.7 1008.7 0.0
15/01:30pm 22.7 24.9 19.5 82 2.0 ENE 7 9 4 5 1009.1 1009.1 0.0
15/01:00pm 22.1 24.1 19.1 83 1.9 ENE 7 11 4 6 1009.2 1009.2 0.0
15/12:30pm 21.8 23.5 19.4 86 1.5 E 9 13 5 7 1009.4 1009.4 0.0
15/12:00pm 22.0 24.0 19.9 88 1.3 ESE 9 13 5 7 1009.4 1009.4 0.0
15/11:30am 21.3 22.9 19.2 88 1.3 SE 9 11 5 6 1009.6 1009.6 0.0
15/11:00am 23.9 26.1 20.4 81 2.3 SSE 9 13 5 7 1009.8 1009.8 0.0
15/10:30am 23.3 25.5 20.4 84 1.9 SE 9 13 5 7 1010.0 1010.0 0.0
15/10:00am 23.8 27.1 20.7 83 2.0 NNW 4 7 2 4 1010.2 1010.2 0.0
15/09:30am 22.6 25.8 20.5 88 1.4 W 4 6 2 3 1010.1 1010.1 0.0
15/09:00am 21.6 24.4 20.4 93 0.8 NNW 6 7 3 4 1010.1 1010.1 0.0
15/08:30am 20.9 22.2 20.1 95 0.5 N 13 17 7 9 1009.9 1009.9 0.0
15/08:00am 20.4 20.4 20.2 99 0.1 N 20 26 11 14 1009.4 1009.4 0.0
15/07:30am 20.2 20.4 20.2 100 0.0 NNE 19 24 10 13 1009.2 1009.2 0.0
15/07:00am 19.8 19.2 19.8 100 0.0 NNE 22 26 12 14 1009.1 1009.1 0.0
15/06:30am 19.1 19.2 19.1 100 0.0 NE 17 20 9 11 1009.4 1009.4 0.0
15/06:00am 19.0 19.0 19.0 100 0.0 NE 17 20 9 11 1009.5 1009.5 0.0
15/05:30am 19.0 18.1 19.0 100 0.0 NE 22 26 12 14 1009.8 1009.8 0.0
15/05:00am 19.2 18.9 19.2 100 0.0 NE 19 24 10 13 1010.2 1010.2 0.0
15/04:30am 19.1 18.2 19.1 100 0.0 NE 22 26 12 14 1010.2 1010.2 0.0
15/04:00am 19.1 17.8 19.1 100 0.0 ENE 24 28 13 15 1010.4 1010.4 0.0
15/03:30am 19.0 17.7 19.0 100 0.0 ENE 24 30 13 16 1010.7 1010.7 0.0
15/03:00am 19.1 16.6 18.9 99 0.1 ENE 30 35 16 19 1011.3 1011.2 0.0
15/02:30am 19.1 16.6 18.9 99 0.1 E 30 33 16 18 1012.1 1012.0 0.0
15/02:00am 18.9 16.7 18.7 99 0.1 E 28 33 15 18 1012.7 1012.6 0.0
15/01:30am 18.9 16.3 18.6 98 0.2 ESE 30 35 16 19 1013.1 1013.0 0.0
15/01:00am 18.9 17.0 18.6 98 0.2 ESE 26 30 14 16 1013.8 1013.7 0.0
15/12:30am 18.9 17.4 18.6 98 0.2 E 24 30 13 16 1013.6 1013.5 0.0
15/12:00am 18.9 16.6 18.4 97 0.3 E 28 32 15 17 1013.6 1013.5 0.0
 
Date/Time
EDT
Temp
°C
App
Temp
°C
Dew
Point
°C
Rel
Hum
%
Delta-T
°C
Wind Press
QNH
hPa
Press
MSL
hPa
Rain since
9am
mm
Dir  Spd
km/h
Gust
km/h
Spd
kts
Gust
kts
14/11:30pm 19.1 16.9 18.6 97 0.3 E 28 33 15 18 1013.7 1013.6 0.0
14/11:00pm 19.2 17.6 18.4 95 0.5 ENE 24 32 13 17 1014.2 1014.1 0.0
14/10:30pm 19.0 18.0 18.0 94 0.6 ESE 20 26 11 14 1014.3 1014.2 0.0

Other Formats:

Comma delimited format used in spreadsheet applications
http://www.bom.gov.au/fwo/IDT60801/IDT60801.95985.axf

JavaScript Object Notation format (JSON) in row-major order
http://www.bom.gov.au/fwo/IDT60801/IDT60801.95985.json